createdAt,value
2019-03-23T00:02:27.192Z,38.90
2019-03-23T00:05:00.679Z,37.57
2019-03-23T00:07:31.021Z,40.20
2019-03-23T00:15:38.877Z,39.30
2019-03-23T00:18:17.901Z,39.37
2019-03-23T00:20:57.418Z,37.83
2019-03-23T00:23:41.528Z,39.40
2019-03-23T00:26:30.847Z,37.73
2019-03-23T00:29:21.441Z,37.63
2019-03-23T00:32:17.063Z,38.23
2019-03-23T00:34:49.883Z,37.70
2019-03-23T00:37:27.425Z,38.43
2019-03-23T00:40:10.890Z,37.30
2019-03-23T00:42:41.026Z,38.67
2019-03-23T00:45:14.056Z,37.60
2019-03-23T00:47:54.700Z,37.57
2019-03-23T00:50:48.355Z,36.67
2019-03-23T00:53:26.888Z,37.30
2019-03-23T00:58:56.083Z,35.70
2019-03-23T01:01:46.620Z,35.43
2019-03-23T01:04:17.266Z,36.60
2019-03-23T01:07:17.895Z,35.57
2019-03-23T01:09:48.660Z,36.83
2019-03-23T01:12:21.887Z,36.27
2019-03-23T01:15:00.600Z,35.33
2019-03-23T01:17:48.675Z,34.43
2019-03-23T01:20:31.699Z,34.37
2019-03-23T01:23:22.938Z,34.50
2019-03-23T01:26:30.108Z,34.50
2019-03-23T01:29:02.489Z,33.10
2019-03-23T01:31:43.433Z,33.97
2019-03-23T01:34:22.260Z,32.70
2019-03-23T01:37:02.694Z,32.93
2019-03-23T01:39:38.232Z,32.67
2019-03-23T01:42:20.884Z,32.20
2019-03-23T01:44:59.532Z,32.37
2019-03-23T01:47:32.591Z,33.07
2019-03-23T01:50:03.594Z,32.03
2019-03-23T01:52:37.446Z,33.33
2019-03-23T01:55:31.971Z,31.97
2019-03-23T01:58:21.583Z,32.10
2019-03-23T02:00:52.038Z,31.50
2019-03-23T02:03:28.923Z,31.17
2019-03-23T02:06:20.520Z,31.53
2019-03-23T02:08:52.703Z,30.57
2019-03-23T02:11:32.532Z,31.37
2019-03-23T02:13:59.940Z,30.07
2019-03-23T02:19:05.979Z,31.50
2019-03-23T02:21:54.231Z,30.23
2019-03-23T02:24:24.926Z,30.93
2019-03-23T02:26:54.501Z,30.70
2019-03-23T02:29:26.330Z,30.57
2019-03-23T02:31:56.301Z,30.63
2019-03-23T02:34:26.007Z,31.13
2019-03-23T02:36:55.605Z,30.60
2019-03-23T02:42:30.454Z,30.07
2019-03-23T02:45:02.029Z,31.63
2019-03-23T02:47:33.560Z,29.93
2019-03-23T02:50:11.743Z,31.70
2019-03-23T02:52:41.935Z,31.37
2019-03-23T02:55:12.337Z,30.10
2019-03-23T02:57:44.832Z,31.00
2019-03-23T03:00:14.912Z,30.87
2019-03-23T03:02:45.462Z,31.00
2019-03-23T03:05:17.568Z,30.87
2019-03-23T03:07:47.145Z,30.67
2019-03-23T03:10:39.787Z,30.67
2019-03-23T03:13:09.658Z,31.67
2019-03-23T03:18:21.397Z,29.60
2019-03-23T03:21:12.255Z,30.40
2019-03-23T03:23:52.673Z,30.67
2019-03-23T03:26:22.885Z,31.20
2019-03-23T03:29:04.864Z,32.10
2019-03-23T03:31:34.853Z,30.77
2019-03-23T03:34:05.203Z,30.60
2019-03-23T03:36:42.269Z,30.33
2019-03-23T03:39:35.795Z,29.83
2019-03-23T03:42:15.345Z,31.60
2019-03-23T03:45:26.926Z,30.73
2019-03-23T03:48:13.730Z,30.73
2019-03-23T03:51:03.846Z,30.77
2019-03-23T03:53:37.578Z,30.17
2019-03-23T03:56:07.535Z,29.63
2019-03-23T03:59:02.452Z,30.37
2019-03-23T04:01:36.098Z,28.40
2019-03-23T04:04:22.371Z,29.33
2019-03-23T04:07:13.544Z,29.27
2019-03-23T04:09:53.093Z,27.63
2019-03-23T04:12:22.875Z,29.60
2019-03-23T04:15:23.744Z,28.57
2019-03-23T04:17:57.091Z,27.53
2019-03-23T04:20:33.022Z,27.83
2019-03-23T04:23:05.544Z,28.30
2019-03-23T04:25:41.295Z,28.40
2019-03-23T04:28:14.491Z,28.30
2019-03-23T04:30:56.450Z,27.00
2019-03-23T04:33:33.513Z,26.70
2019-03-23T04:36:11.434Z,28.20
2019-03-23T04:41:38.857Z,26.90
2019-03-23T04:44:17.975Z,26.90
2019-03-23T04:46:56.986Z,27.03
2019-03-23T04:49:31.224Z,26.07
2019-03-23T04:52:01.598Z,27.33
2019-03-23T04:54:31.538Z,26.23
2019-03-23T04:57:07.150Z,25.50
2019-03-23T04:59:41.039Z,24.27
2019-03-23T05:02:12.132Z,24.77
2019-03-23T05:04:43.407Z,25.23
2019-03-23T05:07:15.115Z,25.90
2019-03-23T05:09:48.311Z,24.70
2019-03-23T05:12:18.200Z,24.33
2019-03-23T05:14:47.799Z,23.67
2019-03-23T05:17:18.220Z,24.50
2019-03-23T05:19:49.512Z,23.67
2019-03-23T05:22:19.439Z,24.10
2019-03-23T05:24:49.307Z,23.73
2019-03-23T05:27:29.765Z,23.30
2019-03-23T05:30:02.781Z,23.60
2019-03-23T05:32:33.675Z,23.03
2019-03-23T05:35:05.129Z,23.43
2019-03-23T05:37:34.473Z,22.63
2019-03-23T05:40:04.976Z,22.83
2019-03-23T05:42:34.918Z,22.13
2019-03-23T05:45:04.912Z,22.50
2019-03-23T05:47:36.131Z,22.23
2019-03-23T05:50:27.227Z,22.30
2019-03-23T05:52:56.706Z,21.73
2019-03-23T05:55:27.687Z,20.77
2019-03-23T05:58:22.219Z,20.77
2019-03-23T06:01:14.066Z,19.90
2019-03-23T06:03:46.531Z,20.50
2019-03-23T06:06:36.006Z,20.60
2019-03-23T06:09:25.765Z,21.07
2019-03-23T06:12:02.975Z,20.60
2019-03-23T06:14:33.763Z,19.57
2019-03-23T06:17:03.305Z,20.47
2019-03-23T06:25:13.828Z,19.07
2019-03-23T06:27:57.632Z,18.53
2019-03-23T06:30:30.037Z,17.87
2019-03-23T06:33:00.208Z,18.47
2019-03-23T06:35:38.358Z,18.33
2019-03-23T06:38:09.165Z,18.90
2019-03-23T06:41:02.176Z,17.67
2019-03-23T06:43:35.837Z,17.57
2019-03-23T06:46:07.187Z,17.30
2019-03-23T06:48:37.552Z,16.90
2019-03-23T06:51:07.705Z,17.50
2019-03-23T06:53:38.092Z,17.37
2019-03-23T06:59:42.454Z,18.60
2019-03-23T07:02:15.682Z,17.40
2019-03-23T07:04:47.798Z,18.27
2019-03-23T07:07:19.457Z,17.83
2019-03-23T07:09:51.471Z,17.60
2019-03-23T07:12:23.719Z,17.70
2019-03-23T07:14:53.743Z,18.73
2019-03-23T07:17:23.725Z,19.47
2019-03-23T07:19:56.952Z,18.57
2019-03-23T07:22:26.814Z,18.73
2019-03-23T07:24:59.924Z,18.83
2019-03-23T07:31:14.528Z,18.30
2019-03-23T07:33:54.463Z,19.73
2019-03-23T07:36:26.316Z,19.97
2019-03-23T07:39:03.516Z,20.20
2019-03-23T07:41:34.222Z,21.50
2019-03-23T07:44:04.684Z,20.20
2019-03-23T09:12:41.784Z,39.43
2019-03-23T09:15:12.059Z,39.40
2019-03-23T09:17:49.364Z,40.00
2019-03-23T09:20:35.395Z,40.27
2019-03-23T09:23:07.531Z,41.77
2019-03-23T09:25:37.266Z,40.97
2019-03-23T09:28:06.802Z,42.00
2019-03-23T09:30:46.141Z,43.63
2019-03-23T09:33:25.004Z,46.37
2019-03-23T09:35:55.889Z,45.60
2019-03-23T09:41:03.761Z,44.97
2019-03-23T09:43:49.242Z,44.90
2019-03-23T09:46:38.314Z,44.43
2019-03-23T09:49:08.523Z,42.77
2019-03-23T09:51:46.656Z,42.93
2019-03-23T09:54:18.623Z,42.67
2019-03-23T09:56:48.575Z,43.57
2019-03-23T09:59:37.395Z,44.67
2019-03-23T10:02:08.647Z,43.03
2019-03-23T10:04:39.665Z,41.40
2019-03-23T10:07:16.765Z,41.97
2019-03-23T10:10:00.329Z,42.30
2019-03-23T10:12:33.085Z,42.17
2019-03-23T10:15:07.613Z,41.77
2019-03-23T10:17:47.538Z,41.10
2019-03-23T10:23:12.115Z,40.93
2019-03-23T10:25:46.632Z,40.37
2019-03-23T10:28:19.963Z,39.43
2019-03-23T10:30:50.253Z,38.97
2019-03-23T10:33:22.987Z,37.50
2019-03-23T10:35:55.240Z,38.57
2019-03-23T10:57:29.425Z,35.70
2019-03-23T11:00:07.383Z,38.53
2019-03-23T11:02:46.447Z,36.03
2019-03-23T11:05:31.169Z,37.20
2019-03-23T11:08:01.514Z,36.33
2019-03-23T11:13:07.921Z,36.53
2019-03-23T11:15:38.758Z,37.97
2019-03-23T11:18:10.317Z,38.80
2019-03-23T11:20:41.720Z,38.97
2019-03-23T11:26:02.849Z,40.67
2019-03-23T11:28:34.024Z,41.10
2019-03-23T11:31:09.684Z,41.80
2019-03-23T11:33:50.787Z,41.37
2019-03-23T11:36:28.617Z,41.80
2019-03-23T11:44:14.514Z,44.00
2019-03-23T12:10:05.393Z,45.03
2019-03-23T12:12:37.888Z,46.67
2019-03-23T12:15:30.480Z,45.73
2019-03-23T12:18:02.509Z,47.07
2019-03-23T12:20:32.406Z,47.60
2019-03-23T12:23:02.190Z,46.90
2019-03-23T19:52:03.922Z,46.20
2019-03-23T19:54:34.377Z,47.33
2019-03-23T19:57:04.633Z,48.93
2019-03-23T19:59:35.916Z,46.43
2019-03-23T20:02:08.402Z,48.83
2019-03-23T20:04:38.157Z,47.93
2019-03-23T20:07:08.629Z,47.00
2019-03-23T20:09:38.295Z,48.67
2019-03-23T20:17:30.551Z,49.13
2019-03-23T20:20:00.534Z,50.33
2019-03-23T20:22:40.975Z,50.70
2019-03-23T20:25:19.095Z,51.10
2019-03-23T20:27:49.249Z,52.77
2019-03-23T20:32:55.654Z,52.93
2019-03-23T20:35:29.841Z,54.40
2019-03-23T20:41:12.362Z,55.50
2019-03-23T20:46:32.286Z,57.83
2019-03-23T20:49:06.381Z,57.47
2019-03-23T20:51:36.605Z,58.47
2019-03-23T20:54:09.074Z,59.07
2019-03-23T20:56:46.843Z,59.23
2019-03-23T20:59:19.521Z,58.30
2019-03-23T21:05:08.603Z,58.83
2019-03-23T21:07:38.733Z,58.87
2019-03-23T21:10:09.015Z,59.50
2019-03-23T21:12:40.737Z,59.60
2019-03-23T21:15:10.285Z,61.80
2019-03-23T21:20:18.614Z,61.17
2019-03-23T21:22:48.815Z,60.77
2019-03-23T22:04:20.110Z,80.63
2019-03-23T22:06:50.157Z,91.63
2019-03-23T22:15:43.620Z,85.73
2019-03-23T22:18:24.436Z,95.60
2019-03-23T22:24:36.717Z,84.43
2019-03-23T22:32:50.503Z,69.40
2019-03-23T22:35:25.885Z,69.70
2019-03-23T22:40:47.590Z,65.73
2019-03-23T22:43:19.294Z,64.47
2019-03-23T22:45:50.765Z,66.30
2019-03-23T22:51:19.586Z,64.47
2019-03-23T22:53:50.109Z,64.57
2019-03-23T22:56:20.296Z,60.83
2019-03-23T22:58:58.307Z,63.73
2019-03-23T23:04:31.447Z,62.57
2019-03-23T23:09:55.261Z,61.37
2019-03-23T23:12:30.032Z,59.33
2019-03-23T23:18:53.801Z,58.00
2019-03-23T23:43:32.328Z,46.63
2019-03-23T23:46:02.373Z,45.67
2019-03-23T23:48:32.392Z,44.27
2019-03-23T23:51:02.467Z,43.67
2019-03-23T23:53:34.167Z,42.47
2019-03-23T23:56:03.747Z,41.87
2019-03-23T23:58:33.810Z,40.73
